Time;durP1;ratioP1;P1;durP2;ratioP2;P2;SDS_P1;SDS_P2;PMS_P1;PMS_P2;Temp;Humidity;BMP_temperature;BMP_pressure;BME280_temperature;BME280_humidity;BME280_pressure;Samples;Min_cycle;Max_cycle;Signal;HPM_P1;HPM_P2
2023/01/30 00:00:51;;;;;;;13.53;6.60;;;;;;;-0.65;100.00;96858.59;5037282;28;20228;-67
2023/01/30 00:03:18;;;;;;;6.67;3.47;;;;;;;-0.77;100.00;96850.78;5037230;28;20205;-66
2023/01/30 00:05:45;;;;;;;9.63;4.17;;;;;;;-0.93;100.00;96843.16;5037721;28;20219;-68
2023/01/30 00:08:11;;;;;;;14.30;4.47;;;;;;;-0.79;100.00;96843.13;5037424;28;20219;-67
2023/01/30 00:10:38;;;;;;;19.77;6.80;;;;;;;-0.92;100.00;96839.59;5037055;28;20230;-68
2023/01/30 00:13:05;;;;;;;14.97;5.50;;;;;;;-0.85;100.00;96837.47;5038245;28;20208;-68
2023/01/30 00:15:31;;;;;;;16.53;5.70;;;;;;;-0.85;100.00;96840.91;5037376;28;20208;-68
2023/01/30 00:17:58;;;;;;;15.13;6.27;;;;;;;-0.84;100.00;96834.81;5036725;28;20219;-67
2023/01/30 00:20:26;;;;;;;15.23;6.37;;;;;;;-0.80;100.00;96815.59;5037327;28;20231;-67
2023/01/30 00:22:52;;;;;;;11.37;5.30;;;;;;;-0.92;100.00;96826.69;5037673;28;20212;-67
2023/01/30 00:25:18;;;;;;;9.10;4.73;;;;;;;-0.86;100.00;96818.56;5036401;28;20218;-68
2023/01/30 00:27:45;;;;;;;7.77;3.60;;;;;;;-0.82;100.00;96822.59;5037380;28;20215;-68
2023/01/30 00:30:12;;;;;;;13.57;3.93;;;;;;;-0.86;100.00;96825.50;5036779;28;20588;-67
2023/01/30 00:32:38;;;;;;;2.40;2.03;;;;;;;-0.81;100.00;96824.28;5037200;28;20205;-66
2023/01/30 00:35:06;;;;;;;16.77;6.00;;;;;;;-0.87;100.00;96814.28;5036190;28;20221;-67
2023/01/30 00:37:34;;;;;;;14.37;4.90;;;;;;;-0.70;100.00;96816.69;5037225;28;20293;-69
2023/01/30 00:40:00;;;;;;;17.33;6.57;;;;;;;-0.91;100.00;96815.41;5037023;28;20242;-68
2023/01/30 00:47:56;;;;;;;16.90;6.40;;;;;;;-0.79;100.00;96801.75;5036746;28;20712;-68
2023/01/30 00:50:23;;;;;;;18.73;7.50;;;;;;;-0.80;99.82;96804.41;5037073;28;20239;-68
2023/01/30 00:52:50;;;;;;;8.20;3.13;;;;;;;-0.74;100.00;96804.03;5037030;28;20212;-67
2023/01/30 00:55:17;;;;;;;9.50;4.73;;;;;;;-0.81;99.89;96806.16;5035955;28;21023;-67
2023/01/30 00:57:44;;;;;;;15.43;6.13;;;;;;;-0.79;100.00;96796.56;5036694;28;20215;-67
2023/01/30 01:00:12;;;;;;;9.83;4.47;;;;;;;-0.84;99.78;96788.25;5036326;28;20228;-68
2023/01/30 01:02:39;;;;;;;13.27;6.17;;;;;;;-0.89;100.00;96787.72;5036823;28;20208;-67
2023/01/30 01:05:06;;;;;;;16.10;6.10;;;;;;;-0.86;100.00;96784.09;5036052;28;20217;-68
2023/01/30 01:07:32;;;;;;;16.77;5.83;;;;;;;-0.87;100.00;96777.25;5035862;28;20209;-68
2023/01/30 01:10:00;;;;;;;13.90;6.10;;;;;;;-0.77;99.15;96786.13;5036418;28;21111;-67
2023/01/30 01:12:27;;;;;;;12.97;5.63;;;;;;;-0.83;99.22;96781.31;5036799;28;20218;-68
2023/01/30 01:14:53;;;;;;;11.90;6.33;;;;;;;-0.76;99.08;96783.44;5035887;28;20215;-67
2023/01/30 01:17:19;;;;;;;19.60;6.47;;;;;;;-0.90;99.83;96778.28;5036437;28;21050;-68
2023/01/30 01:19:46;;;;;;;21.07;8.07;;;;;;;-0.89;99.77;96766.16;5037546;28;20225;-68
2023/01/30 01:22:12;;;;;;;19.40;7.47;;;;;;;-0.81;99.28;96751.84;5036250;28;20201;-67
2023/01/30 01:24:39;;;;;;;17.00;6.70;;;;;;;-0.87;98.97;96762.56;5035422;28;21074;-67
2023/01/30 01:27:06;;;;;;;23.47;7.50;;;;;;;-0.74;99.09;96758.28;5036794;28;20207;-68
2023/01/30 01:29:33;;;;;;;14.93;6.93;;;;;;;-0.91;99.41;96762.88;5035976;28;20220;-68
2023/01/30 01:31:59;;;;;;;16.63;6.47;;;;;;;-0.87;99.38;96762.56;5036210;28;20218;-66
2023/01/30 01:34:26;;;;;;;11.80;5.77;;;;;;;-0.99;100.00;96773.69;5036189;28;20208;-66
2023/01/30 01:36:52;;;;;;;15.40;5.57;;;;;;;-0.79;99.36;96777.59;5036296;28;20219;-67
2023/01/30 01:39:18;;;;;;;10.10;4.67;;;;;;;-0.92;99.03;96790.47;5035910;28;20238;-66
2023/01/30 01:41:44;;;;;;;14.80;5.87;;;;;;;-0.78;98.99;96781.88;5036797;28;20668;-68
2023/01/30 01:44:14;;;;;;;17.70;7.83;;;;;;;-0.76;99.15;96793.78;5035561;28;20215;-67
2023/01/30 01:46:44;;;;;;;7.23;4.23;;;;;;;-0.91;99.88;96801.66;5036063;28;20208;-67
2023/01/30 01:49:15;;;;;;;10.73;4.47;;;;;;;-0.88;99.95;96820.41;5036106;28;20221;-68
2023/01/30 01:51:49;;;;;;;16.03;5.37;;;;;;;-0.87;100.00;96816.06;5036337;28;20216;-68
2023/01/30 01:54:20;;;;;;;3.97;3.37;;;;;;;-0.99;100.00;96812.47;5035195;28;21125;-67
2023/01/30 01:56:49;;;;;;;11.50;5.57;;;;;;;-1.03;99.67;96817.91;5036286;28;20199;-67
2023/01/30 01:59:22;;;;;;;15.17;6.60;;;;;;;-0.93;100.00;96803.50;5035953;28;20719;-68
2023/01/30 02:01:50;;;;;;;19.47;6.73;;;;;;;-0.96;99.62;96798.53;5036404;28;20207;-67
2023/01/30 02:05:00;;;;;;;12.30;6.33;;;;;;;-1.04;99.78;96809.34;5035068;28;20202;-67
2023/01/30 02:07:04;;;;;;;14.87;7.40;;;;;;;-1.10;100.00;96821.81;5035705;28;20558;-68
2023/01/30 02:09:30;;;;;;;10.27;5.13;;;;;;;-1.06;100.00;96828.44;5035980;28;20227;-67
2023/01/30 02:12:00;;;;;;;15.93;4.83;;;;;;;-0.98;99.79;96827.06;5035814;28;20680;-67
2023/01/30 02:14:29;;;;;;;15.30;5.80;;;;;;;-0.94;100.00;96833.72;5035705;28;20221;-67
2023/01/30 02:16:55;;;;;;;14.30;6.47;;;;;;;-1.08;100.00;96831.13;5035982;28;20205;-68
2023/01/30 02:19:28;;;;;;;22.53;9.50;;;;;;;-1.03;99.73;96847.22;5037939;28;20239;-68
2023/01/30 02:22:15;;;;;;;18.17;7.90;;;;;;;-1.04;100.00;96845.53;5040421;28;20223;-68
2023/01/30 02:25:17;;;;;;;11.77;4.17;;;;;;;-0.96;100.00;96840.72;5039197;28;20212;-68
2023/01/30 02:28:03;;;;;;;17.53;6.97;;;;;;;-0.99;99.38;96848.69;4989504;28;20210;-67
2023/01/30 02:31:07;;;;;;;8.23;4.17;;;;;;;-0.92;99.04;96838.78;5040554;28;20251;-67
2023/01/30 02:33:40;;;;;;;18.63;6.90;;;;;;;-1.02;99.87;96833.38;5038699;28;20699;-67
2023/01/30 02:36:20;;;;;;;13.87;6.00;;;;;;;-1.07;100.00;96822.47;5039650;28;20212;-68
2023/01/30 02:38:54;;;;;;;17.53;5.97;;;;;;;-1.04;100.00;96818.84;5040165;28;20702;-68
2023/01/30 02:41:29;;;;;;;17.37;4.73;;;;;;;-1.03;99.60;96807.56;5039010;28;20221;-67
2023/01/30 02:44:02;;;;;;;10.80;4.20;;;;;;;-1.08;99.95;96796.69;5038913;28;20208;-67
2023/01/30 02:46:36;;;;;;;17.60;6.20;;;;;;;-1.01;99.46;96791.03;5039195;28;20209;-68
2023/01/30 02:49:10;;;;;;;17.87;7.13;;;;;;;-1.05;99.89;96784.41;5038822;28;20226;-68
2023/01/30 02:51:38;;;;;;;15.50;7.17;;;;;;;-1.18;99.90;96791.25;5038942;28;21106;-68
2023/01/30 02:54:06;;;;;;;9.93;5.27;;;;;;;-1.17;100.00;96816.19;5038520;28;21061;-68
2023/01/30 02:56:44;;;;;;;15.63;6.83;;;;;;;-1.02;100.00;96810.09;5038844;28;20307;-67
2023/01/30 02:59:12;;;;;;;15.07;6.50;;;;;;;-1.09;100.00;96810.53;5039004;28;20735;-68
2023/01/30 03:01:56;;;;;;;9.27;4.50;;;;;;;-1.01;99.32;96811.72;5039109;28;20231;-67
2023/01/30 03:04:45;;;;;;;20.67;6.60;;;;;;;-1.05;100.00;96810.25;5037930;28;20212;-68
2023/01/30 03:07:22;;;;;;;13.13;5.83;;;;;;;-1.14;100.00;96797.06;5038954;28;20197;-68
2023/01/30 03:09:58;;;;;;;18.13;6.80;;;;;;;-1.09;100.00;96802.78;5038840;28;20724;-67
2023/01/30 03:12:34;;;;;;;24.30;8.97;;;;;;;-1.05;100.00;96805.09;5038400;28;20215;-68
2023/01/30 03:15:05;;;;;;;14.30;4.93;;;;;;;-1.15;100.00;96791.03;5038062;28;20567;-67
2023/01/30 03:17:34;;;;;;;15.60;7.23;;;;;;;-1.21;100.00;96794.03;5038922;28;20218;-68
2023/01/30 03:20:01;;;;;;;11.10;4.80;;;;;;;-1.20;100.00;96800.88;5038418;28;20730;-68
2023/01/30 03:22:28;;;;;;;18.93;9.20;;;;;;;-1.23;100.00;96783.84;5038871;28;20345;-68
2023/01/30 03:24:54;;;;;;;21.43;8.63;;;;;;;-1.23;100.00;96773.50;5038160;28;20219;-68
2023/01/30 03:27:22;;;;;;;25.13;7.60;;;;;;;-1.05;100.00;96774.06;5038555;28;20215;-67
2023/01/30 03:29:48;;;;;;;23.33;7.50;;;;;;;-1.11;99.64;96764.09;5037977;28;20240;-68
2023/01/30 03:32:15;;;;;;;18.23;6.77;;;;;;;-1.10;99.36;96796.78;5038280;28;20203;-66
2023/01/30 03:34:43;;;;;;;15.73;6.47;;;;;;;-0.96;99.66;96799.34;5037473;28;20685;-68
2023/01/30 03:37:09;;;;;;;12.90;5.73;;;;;;;-1.01;99.15;96811.72;5037663;28;20201;-67
2023/01/30 03:39:36;;;;;;;19.43;8.17;;;;;;;-1.09;99.49;96785.50;5038635;28;20222;-67
2023/01/30 03:42:02;;;;;;;21.50;8.77;;;;;;;-1.07;99.47;96791.44;5037970;28;20578;-68
2023/01/30 03:44:29;;;;;;;10.30;6.00;;;;;;;-1.14;99.82;96807.41;5036870;28;20295;-68
2023/01/30 03:46:55;;;;;;;10.27;4.53;;;;;;;-1.23;100.00;96807.13;5038461;28;20218;-67
2023/01/30 03:49:21;;;;;;;13.00;4.80;;;;;;;-1.09;99.89;96815.72;5038154;28;20876;-67
2023/01/30 03:51:49;;;;;;;12.87;6.70;;;;;;;-1.05;99.51;96810.25;5037828;28;20206;-67
2023/01/30 03:54:16;;;;;;;5.77;3.03;;;;;;;-1.24;100.00;96797.72;5034756;28;20215;-67
2023/01/30 03:56:42;;;;;;;17.20;6.57;;;;;;;-1.24;100.00;96808.06;5038413;28;20211;-68
2023/01/30 03:59:09;;;;;;;12.23;4.67;;;;;;;-1.12;99.90;96808.97;5037676;28;20228;-68
2023/01/30 04:01:35;;;;;;;13.30;6.27;;;;;;;-1.17;99.74;96803.25;5037974;28;20452;-67
2023/01/30 04:04:02;;;;;;;24.13;7.80;;;;;;;-1.17;99.43;96803.25;5037383;28;20247;-67
2023/01/30 04:06:28;;;;;;;20.57;8.50;;;;;;;-1.07;100.00;96781.09;5037120;28;20414;-68
2023/01/30 04:08:56;;;;;;;8.00;3.53;;;;;;;-1.18;99.90;96780.91;5037781;28;20222;-68
2023/01/30 04:11:22;;;;;;;21.27;8.27;;;;;;;-1.22;99.75;96766.50;5037381;28;20220;-67
2023/01/30 04:13:49;;;;;;;16.57;6.10;;;;;;;-1.35;99.92;96767.38;5036847;28;20204;-67
2023/01/30 04:16:18;;;;;;;17.30;7.73;;;;;;;-1.12;99.89;96746.94;5037210;28;20676;-67
2023/01/30 04:18:44;;;;;;;15.60;6.57;;;;;;;-1.24;99.96;96733.09;5037790;28;20211;-68
2023/01/30 04:21:11;;;;;;;24.23;10.23;;;;;;;-1.18;100.00;96723.22;5036999;28;20224;-68
2023/01/30 04:23:38;;;;;;;21.73;8.60;;;;;;;-1.18;99.95;96711.09;5036938;28;21055;-66
2023/01/30 04:26:07;;;;;;;14.00;6.17;;;;;;;-1.09;99.51;96705.34;5037264;28;20702;-68
2023/01/30 04:28:33;;;;;;;13.27;6.30;;;;;;;-1.10;99.14;96708.84;5037579;28;20212;-68
2023/01/30 04:31:00;;;;;;;22.63;9.30;;;;;;;-1.08;100.00;96716.53;5037098;28;20203;-67
2023/01/30 04:33:26;;;;;;;19.90;9.00;;;;;;;-1.20;99.32;96720.72;5037401;28;20211;-67
2023/01/30 04:35:53;;;;;;;21.63;9.00;;;;;;;-1.07;99.19;96724.19;5036122;28;20204;-67
2023/01/30 04:38:20;;;;;;;23.70;8.10;;;;;;;-1.12;99.44;96718.47;5036983;28;20226;-68
2023/01/30 04:40:50;;;;;;;20.87;7.33;;;;;;;-1.02;99.70;96717.00;5037753;28;20278;-67
2023/01/30 04:43:18;;;;;;;17.67;7.80;;;;;;;-1.12;99.85;96718.47;5037236;28;21007;-67
2023/01/30 04:45:45;;;;;;;12.30;5.33;;;;;;;-1.03;99.62;96723.09;5036149;28;20751;-68
2023/01/30 04:48:12;;;;;;;14.63;4.97;;;;;;;-1.04;99.65;96736.13;5036766;28;20685;-68
2023/01/30 04:50:38;;;;;;;13.53;6.93;;;;;;;-1.09;99.69;96726.03;5037204;28;20221;-68
2023/01/30 04:53:05;;;;;;;25.00;8.97;;;;;;;-1.10;99.70;96734.72;5037006;28;20216;-68
2023/01/30 04:55:31;;;;;;;8.80;3.37;;;;;;;-1.06;100.00;96718.13;5035725;28;20217;-68
2023/01/30 04:57:58;;;;;;;9.00;4.27;;;;;;;-0.96;99.81;96723.53;5037424;28;20209;-68
2023/01/30 05:00:26;;;;;;;16.53;6.33;;;;;;;-0.92;99.57;96730.97;5036862;28;20238;-67
2023/01/30 05:02:54;;;;;;;22.80;8.20;;;;;;;-0.91;99.30;96729.25;5036356;28;20212;-68
2023/01/30 05:05:21;;;;;;;14.60;5.73;;;;;;;-0.97;100.00;96729.63;5035836;28;20194;-68
2023/01/30 05:07:47;;;;;;;18.23;8.53;;;;;;;-0.89;99.95;96722.19;5036970;28;20203;-67
2023/01/30 05:10:14;;;;;;;17.40;6.47;;;;;;;-0.92;99.41;96723.22;5036515;28;20228;-67
2023/01/30 05:12:40;;;;;;;8.57;4.37;;;;;;;-0.91;99.84;96706.78;5036814;28;20232;-67
2023/01/30 05:15:08;;;;;;;14.37;6.67;;;;;;;-0.88;99.88;96719.53;5035825;28;20501;-67
2023/01/30 05:17:36;;;;;;;14.77;6.33;;;;;;;-0.91;100.00;96727.47;5036436;28;20212;-68
2023/01/30 05:20:03;;;;;;;18.70;6.50;;;;;;;-0.80;100.00;96719.88;5036671;28;20230;-67
2023/01/30 05:22:30;;;;;;;29.00;8.23;;;;;;;-0.82;100.00;96716.53;5036835;28;20206;-67
2023/01/30 05:24:56;;;;;;;14.53;5.53;;;;;;;-0.88;100.00;96716.94;5035610;28;20632;-67
2023/01/30 05:27:22;;;;;;;9.30;4.90;;;;;;;-0.81;99.90;96720.78;5036352;28;21203;-68
2023/01/30 05:29:49;;;;;;;9.17;4.23;;;;;;;-0.80;99.72;96696.59;5036392;28;20218;-67
2023/01/30 05:32:17;;;;;;;5.80;3.07;;;;;;;-0.88;100.00;96685.06;5036151;28;20197;-67
2023/01/30 05:34:45;;;;;;;16.73;5.87;;;;;;;-0.78;100.00;96681.78;5035979;28;20216;-68
2023/01/30 05:37:12;;;;;;;12.27;5.60;;;;;;;-0.85;100.00;96682.28;5036683;28;20215;-67
2023/01/30 05:39:39;;;;;;;17.43;8.00;;;;;;;-0.90;100.00;96684.34;5036286;28;20221;-68
2023/01/30 05:42:05;;;;;;;28.10;8.20;;;;;;;-0.87;100.00;96700.47;5035790;28;21139;-67
2023/01/30 05:44:32;;;;;;;18.40;7.63;;;;;;;-0.85;99.95;96708.13;5035889;28;20207;-67
2023/01/30 05:46:58;;;;;;;20.33;6.87;;;;;;;-0.92;99.87;96723.22;5036153;28;20210;-68
2023/01/30 05:49:25;;;;;;;18.93;7.27;;;;;;;-1.01;100.00;96713.44;5036099;28;20225;-67
2023/01/30 05:51:52;;;;;;;16.50;7.07;;;;;;;-0.92;100.00;96723.22;5036573;28;20211;-67
2023/01/30 05:54:19;;;;;;;17.17;6.17;;;;;;;-0.98;100.00;96713.28;5037444;28;20210;-68
2023/01/30 05:56:48;;;;;;;10.17;5.37;;;;;;;-0.78;100.00;96719.78;5040297;28;20212;-68
2023/01/30 05:59:15;;;;;;;14.67;6.23;;;;;;;-0.86;100.00;96722.84;5039831;28;20254;-68
2023/01/30 06:01:41;;;;;;;13.67;5.77;;;;;;;-0.88;100.00;96711.78;5040124;28;20325;-68
2023/01/30 06:04:08;;;;;;;22.77;8.63;;;;;;;-0.80;100.00;96716.44;5038802;28;20906;-68
2023/01/30 06:06:34;;;;;;;13.77;7.17;;;;;;;-0.92;100.00;96717.22;5040405;28;20686;-67
2023/01/30 06:09:03;;;;;;;20.07;7.87;;;;;;;-0.95;100.00;96723.41;5039682;28;20231;-67
2023/01/30 06:11:30;;;;;;;25.33;6.97;;;;;;;-0.85;100.00;96727.09;5040005;28;20209;-68
2023/01/30 06:13:56;;;;;;;11.57;5.77;;;;;;;-0.87;100.00;96720.34;5038702;28;20212;-67
2023/01/30 06:16:22;;;;;;;15.17;7.13;;;;;;;-0.91;100.00;96709.38;5040334;28;20216;-67
2023/01/30 06:18:49;;;;;;;12.73;6.07;;;;;;;-0.79;100.00;96713.78;5039902;28;20221;-67
2023/01/30 06:21:16;;;;;;;12.40;4.73;;;;;;;-0.86;100.00;96725.44;5039250;28;20221;-68
2023/01/30 06:23:43;;;;;;;14.57;5.60;;;;;;;-0.86;100.00;96706.50;5039308;28;20204;-68
2023/01/30 06:26:10;;;;;;;21.83;8.50;;;;;;;-0.69;100.00;96714.84;5039385;28;20216;-68
2023/01/30 06:28:37;;;;;;;19.33;8.07;;;;;;;-0.73;100.00;96704.78;5039467;28;20214;-67
2023/01/30 06:31:06;;;;;;;13.57;5.40;;;;;;;-0.82;100.00;96702.78;5039340;28;20209;-67
2023/01/30 06:33:32;;;;;;;20.07;7.70;;;;;;;-0.76;100.00;96711.00;5039232;28;20203;-68
2023/01/30 06:35:59;;;;;;;17.60;6.83;;;;;;;-0.76;100.00;96708.41;5039181;28;20209;-67
2023/01/30 06:38:25;;;;;;;13.47;6.00;;;;;;;-0.79;100.00;96707.75;5039499;28;20295;-68
2023/01/30 06:40:52;;;;;;;9.10;5.43;;;;;;;-0.80;100.00;96706.94;5038853;28;20229;-67
2023/01/30 06:43:19;;;;;;;10.43;4.47;;;;;;;-0.59;99.98;96719.34;5039228;28;20202;-67
2023/01/30 06:45:46;;;;;;;17.70;8.43;;;;;;;-0.74;99.39;96716.88;5038647;28;20216;-67
2023/01/30 06:48:12;;;;;;;16.67;5.77;;;;;;;-0.59;98.96;96721.09;5038910;28;20210;-67
2023/01/30 06:50:39;;;;;;;17.57;5.23;;;;;;;-0.70;98.97;96713.19;5038656;28;20227;-67
2023/01/30 06:53:07;;;;;;;19.10;7.80;;;;;;;-0.38;98.28;96714.50;5038979;28;20211;-68
2023/01/30 06:55:35;;;;;;;13.57;4.77;;;;;;;-0.51;99.20;96717.09;5037947;28;20216;-67
2023/01/30 06:58:03;;;;;;;8.13;4.20;;;;;;;-0.69;99.00;96717.41;5038930;28;20208;-67
2023/01/30 07:00:31;;;;;;;20.07;7.40;;;;;;;-0.54;98.64;96731.97;5038763;28;20228;-67
2023/01/30 07:02:58;;;;;;;13.70;6.00;;;;;;;-0.54;98.62;96729.38;5038954;28;20827;-68
2023/01/30 07:05:24;;;;;;;12.17;6.17;;;;;;;-0.57;98.27;96727.00;5036752;28;20212;-67
2023/01/30 07:07:51;;;;;;;10.90;4.70;;;;;;;-0.53;98.09;96710.34;5038606;28;20691;-68
2023/01/30 07:10:17;;;;;;;12.07;5.83;;;;;;;-0.53;97.73;96711.16;5038507;28;20238;-67
2023/01/30 07:12:45;;;;;;;16.07;6.53;;;;;;;-0.42;98.45;96713.03;5038857;28;20201;-68
2023/01/30 07:15:12;;;;;;;20.03;6.70;;;;;;;-0.51;98.95;96711.06;5037915;28;20209;-67
2023/01/30 07:17:41;;;;;;;17.70;7.40;;;;;;;-0.42;98.00;96713.91;5038675;28;20208;-67
2023/01/30 07:20:09;;;;;;;16.83;7.33;;;;;;;-0.48;97.71;96713.47;5038237;28;20238;-67
2023/01/30 07:22:36;;;;;;;21.30;8.37;;;;;;;-0.53;98.62;96710.34;5034161;28;20402;-67
2023/01/30 07:25:02;;;;;;;18.17;6.20;;;;;;;-0.69;98.47;96709.66;5035827;28;20208;-67
2023/01/30 07:27:29;;;;;;;14.03;5.63;;;;;;;-0.58;97.54;96704.63;5037802;28;20212;-68
2023/01/30 07:29:55;;;;;;;17.07;7.13;;;;;;;-0.48;97.89;96705.72;5037398;28;20256;-67
2023/01/30 07:32:22;;;;;;;18.93;6.53;;;;;;;-0.52;97.87;96691.31;5037504;28;20212;-67
2023/01/30 07:34:50;;;;;;;16.77;6.10;;;;;;;-0.39;97.30;96686.97;5036490;28;20587;-67
2023/01/30 07:37:16;;;;;;;17.30;6.27;;;;;;;-0.37;97.25;96700.63;5037531;28;20208;-67
2023/01/30 07:39:43;;;;;;;15.80;5.63;;;;;;;-0.29;96.48;96698.41;5036553;28;20238;-67
2023/01/30 07:42:09;;;;;;;20.73;7.00;;;;;;;-0.20;96.19;96693.44;5036889;28;20224;-67
2023/01/30 07:44:36;;;;;;;5.23;2.73;;;;;;;-0.26;96.28;96680.06;5037290;28;20205;-68
2023/01/30 07:47:03;;;;;;;8.50;3.37;;;;;;;-0.30;96.73;96697.56;5037057;28;20205;-67
2023/01/30 07:49:29;;;;;;;17.93;5.57;;;;;;;-0.27;95.94;96692.16;5037478;28;20732;-67
2023/01/30 07:51:57;;;;;;;18.97;6.37;;;;;;;-0.18;95.95;96686.38;5038301;28;20215;-68
2023/01/30 07:54:25;;;;;;;14.83;6.03;;;;;;;-0.30;96.25;96697.56;5035272;28;20208;-67
2023/01/30 07:56:52;;;;;;;13.53;5.90;;;;;;;-0.08;96.87;96691.78;5037654;28;20250;-67
2023/01/30 07:59:18;;;;;;;9.10;4.47;;;;;;;-0.17;95.94;96692.41;5037695;28;20316;-68
2023/01/30 08:01:44;;;;;;;14.67;5.13;;;;;;;-0.04;95.75;96673.34;5037584;28;20231;-67
2023/01/30 08:04:11;;;;;;;9.80;4.43;;;;;;;-0.16;95.30;96673.34;5036607;28;20214;-68
2023/01/30 08:06:38;;;;;;;7.37;3.80;;;;;;;-0.11;95.45;96664.34;5036054;28;20210;-68
2023/01/30 08:09:06;;;;;;;5.03;3.07;;;;;;;-0.10;94.86;96655.66;5036594;28;20227;-67
2023/01/30 08:11:33;;;;;;;10.60;4.87;;;;;;;-0.22;95.43;96660.81;5037328;28;20210;-67
2023/01/30 08:13:59;;;;;;;12.23;4.27;;;;;;;-0.21;95.00;96659.88;5036562;28;20216;-67
2023/01/30 08:16:26;;;;;;;16.13;5.37;;;;;;;0.01;94.44;96658.31;5037667;28;20235;-68
2023/01/30 08:18:52;;;;;;;15.70;6.77;;;;;;;-0.02;94.46;96685.25;5036665;28;20680;-67
2023/01/30 08:21:19;;;;;;;9.67;4.17;;;;;;;0.17;93.79;96688.28;5037388;28;20225;-68
2023/01/30 08:23:45;;;;;;;11.50;6.23;;;;;;;0.13;94.01;96686.81;5036950;28;20219;-68
2023/01/30 08:26:13;;;;;;;17.07;6.23;;;;;;;0.15;94.00;96681.53;5037008;28;20799;-67
2023/01/30 08:28:40;;;;;;;16.00;6.13;;;;;;;0.23;93.44;96685.28;5036894;28;20209;-67
2023/01/30 08:31:09;;;;;;;10.73;4.57;;;;;;;0.30;93.32;96665.75;5037358;28;20216;-67
2023/01/30 08:33:35;;;;;;;22.60;4.80;;;;;;;0.14;93.05;96666.91;5036416;28;20212;-67
2023/01/30 08:36:02;;;;;;;15.50;5.37;;;;;;;0.41;92.74;96668.47;5036362;28;20201;-67
2023/01/30 08:38:28;;;;;;;15.07;5.87;;;;;;;0.43;92.46;96679.53;5037307;28;20205;-67
2023/01/30 08:40:56;;;;;;;15.77;5.70;;;;;;;0.42;92.79;96667.53;5037024;28;20229;-68
2023/01/30 08:43:24;;;;;;;6.77;3.40;;;;;;;0.31;92.44;96667.44;5035962;28;20205;-67
2023/01/30 08:45:53;;;;;;;12.40;5.67;;;;;;;0.42;92.67;96685.69;5036129;28;20205;-67
2023/01/30 08:48:19;;;;;;;18.20;5.13;;;;;;;0.48;92.78;96697.38;5036487;28;20290;-67
2023/01/30 08:50:46;;;;;;;9.20;4.40;;;;;;;0.55;91.50;96698.59;5036139;28;20231;-67
2023/01/30 08:53:12;;;;;;;10.43;3.90;;;;;;;0.50;92.38;96674.75;5035750;28;20208;-67
2023/01/30 08:55:39;;;;;;;9.30;4.10;;;;;;;0.38;91.23;96666.09;5035339;28;20212;-67
2023/01/30 08:58:05;;;;;;;11.60;4.37;;;;;;;0.31;92.03;96670.03;5035718;28;20201;-67
2023/01/30 09:00:33;;;;;;;9.20;5.23;;;;;;;0.32;92.04;96663.06;5035202;28;20228;-67
2023/01/30 09:03:00;;;;;;;9.23;4.60;;;;;;;0.26;92.49;96647.97;5036632;28;20221;-68
2023/01/30 09:05:28;;;;;;;13.60;5.23;;;;;;;0.51;92.41;96666.06;5035667;28;20208;-67
2023/01/30 09:07:55;;;;;;;9.30;3.50;;;;;;;0.45;92.38;96672.50;5035428;28;20205;-68
2023/01/30 09:10:23;;;;;;;10.17;4.97;;;;;;;0.47;91.60;96678.41;5036066;28;20221;-67
2023/01/30 09:12:49;;;;;;;7.73;3.73;;;;;;;0.43;92.56;96669.16;5035363;28;20277;-68
2023/01/30 09:15:16;;;;;;;8.50;4.10;;;;;;;0.56;92.60;96663.97;5035082;28;20202;-67
2023/01/30 09:17:44;;;;;;;4.07;2.57;;;;;;;0.87;91.36;96659.13;5034320;28;20197;-67
2023/01/30 09:20:12;;;;;;;8.40;3.87;;;;;;;0.85;91.58;96661.00;5035660;28;20312;-68
2023/01/30 09:22:39;;;;;;;16.43;5.30;;;;;;;1.02;91.07;96658.03;5035729;28;21215;-68
2023/01/30 09:25:07;;;;;;;12.43;5.27;;;;;;;1.14;89.28;96636.41;5034987;28;20212;-67
2023/01/30 09:27:33;;;;;;;11.67;3.40;;;;;;;1.07;89.16;96635.16;5035640;28;20216;-67
2023/01/30 09:30:00;;;;;;;13.80;4.37;;;;;;;1.27;89.02;96610.28;5035291;28;20772;-68
2023/01/30 09:32:26;;;;;;;6.50;4.40;;;;;;;1.36;88.13;96609.59;5035076;28;20205;-68
2023/01/30 09:34:54;;;;;;;8.67;3.53;;;;;;;1.48;87.80;96613.06;5036123;28;20201;-67
2023/01/30 09:37:21;;;;;;;12.97;5.50;;;;;;;1.56;87.43;96618.50;5036081;28;20201;-68
2023/01/30 09:39:47;;;;;;;7.70;3.57;;;;;;;1.51;86.97;96631.81;5033984;28;20723;-68
2023/01/30 09:42:45;;;;;;;9.63;4.07;;;;;;;1.50;86.79;96625.00;5034607;28;20639;-67
2023/01/30 09:45:29;;;;;;;8.13;3.47;;;;;;;1.40;86.70;96613.63;5035351;28;20205;-68
2023/01/30 09:48:03;;;;;;;8.37;3.73;;;;;;;1.23;86.97;96632.22;5036054;28;20219;-67
2023/01/30 09:51:07;;;;;;;11.83;4.93;;;;;;;1.32;86.70;96630.69;5035639;28;20255;-68
2023/01/30 09:53:45;;;;;;;8.97;3.90;;;;;;;1.43;86.78;96626.38;5035510;28;20207;-68
2023/01/30 09:56:12;;;;;;;8.40;4.33;;;;;;;1.39;86.73;96622.34;5035791;28;20264;-67
2023/01/30 09:58:45;;;;;;;4.17;1.77;;;;;;;1.78;85.76;96624.56;5035522;28;20220;-68
2023/01/30 10:01:20;;;;;;;11.03;4.93;;;;;;;2.10;85.82;96612.56;5036227;28;20919;-67
2023/01/30 10:03:59;;;;;;;7.93;4.10;;;;;;;1.95;84.59;96608.56;5034623;28;20201;-67
2023/01/30 10:06:27;;;;;;;35.07;4.63;;;;;;;1.93;85.16;96590.47;5035878;28;20225;-68
2023/01/30 10:08:59;;;;;;;13.30;4.90;;;;;;;2.09;84.82;96574.56;5035737;28;20204;-68
2023/01/30 10:11:41;;;;;;;11.13;5.43;;;;;;;2.10;85.08;96568.38;5035610;28;20208;-68
2023/01/30 10:14:26;;;;;;;10.60;4.57;;;;;;;1.86;85.22;96549.50;5035267;28;20209;-68
2023/01/30 10:17:01;;;;;;;7.37;3.77;;;;;;;1.85;85.67;96566.03;5033506;28;20197;-67
2023/01/30 10:19:51;;;;;;;9.77;3.53;;;;;;;2.01;85.68;96554.34;5032626;28;20228;-66
2023/01/30 10:22:31;;;;;;;9.63;3.80;;;;;;;2.40;84.72;96549.47;5033863;28;20228;-67
2023/01/30 10:25:07;;;;;;;5.40;3.27;;;;;;;2.81;83.02;96549.59;5032817;28;20219;-68
2023/01/30 10:27:36;;;;;;;10.23;5.27;;;;;;;2.76;82.89;96570.00;5034026;28;20208;-68
2023/01/30 10:30:07;;;;;;;13.80;4.77;;;;;;;2.75;82.94;96562.28;5033397;28;20234;-68
2023/01/30 10:32:42;;;;;;;12.43;4.67;;;;;;;2.68;83.39;96550.72;5034069;28;21027;-68
2023/01/30 10:35:15;;;;;;;6.83;4.10;;;;;;;2.56;84.03;96562.94;5033187;28;20562;-68
2023/01/30 10:37:50;;;;;;;8.37;3.13;;;;;;;2.38;84.99;96542.75;5034059;28;20204;-68
2023/01/30 10:40:23;;;;;;;10.20;3.90;;;;;;;2.39;83.96;96559.97;5035254;28;20235;-68
2023/01/30 10:43:01;;;;;;;8.37;4.03;;;;;;;2.24;84.35;96556.00;5037313;28;20221;-67
2023/01/30 10:45:33;;;;;;;10.77;4.63;;;;;;;2.30;85.02;96546.88;5035384;28;20209;-67
2023/01/30 10:48:21;;;;;;;3.70;2.10;;;;;;;2.16;85.19;96541.94;5036786;28;20198;-66
2023/01/30 10:50:53;;;;;;;9.83;3.27;;;;;;;2.20;85.10;96544.19;5035705;28;20727;-68
2023/01/30 10:53:28;;;;;;;12.80;4.90;;;;;;;2.31;84.85;96556.34;5036514;28;20197;-67
2023/01/30 10:56:02;;;;;;;11.97;4.63;;;;;;;2.29;86.12;96547.84;5036127;28;20208;-68
2023/01/30 10:58:39;;;;;;;10.63;4.57;;;;;;;2.26;85.32;96561.06;5037449;28;20212;-68
2023/01/30 11:01:12;;;;;;;7.47;3.57;;;;;;;2.33;85.65;96554.44;5036052;28;20206;-67
2023/01/30 11:03:45;;;;;;;8.97;4.07;;;;;;;2.44;85.95;96552.66;5036711;28;20233;-68
2023/01/30 11:06:15;;;;;;;8.93;3.90;;;;;;;2.29;86.31;96558.22;5037297;28;20205;-66
2023/01/30 11:08:43;;;;;;;5.20;3.03;;;;;;;2.31;86.17;96545.94;5036685;28;20228;-66
2023/01/30 11:11:38;;;;;;;6.77;3.57;;;;;;;2.48;85.17;96534.09;5036841;28;20467;-68
2023/01/30 11:14:07;;;;;;;18.50;5.57;;;;;;;2.37;85.55;96528.09;5023536;28;20216;-68
2023/01/30 11:16:43;;;;;;;13.23;3.33;;;;;;;2.52;85.77;96526.88;5036552;28;20221;-67
2023/01/30 11:19:10;;;;;;;8.17;4.50;;;;;;;2.57;85.32;96525.56;5036527;28;20314;-68
2023/01/30 11:21:37;;;;;;;9.67;4.03;;;;;;;2.52;85.91;96532.91;5037715;28;20740;-68
2023/01/30 11:24:13;;;;;;;8.80;4.23;;;;;;;2.44;86.60;96526.66;5036029;28;20326;-68
2023/01/30 11:26:40;;;;;;;4.70;2.60;;;;;;;2.46;86.37;96535.97;5036459;28;20756;-69
2023/01/30 11:29:27;;;;;;;9.43;3.43;;;;;;;2.74;85.51;96530.25;5036860;28;20253;-66
2023/01/30 11:31:54;;;;;;;9.67;4.57;;;;;;;2.60;86.46;96527.91;5037712;28;20211;-68
2023/01/30 11:34:22;;;;;;;9.37;4.10;;;;;;;2.68;86.61;96515.13;5036428;28;20206;-67
2023/01/30 11:36:49;;;;;;;12.33;5.40;;;;;;;2.77;86.47;96513.56;5036973;28;20213;-67
2023/01/30 11:39:23;;;;;;;4.93;2.90;;;;;;;2.74;86.52;96506.03;5036890;28;20325;-66
2023/01/30 11:42:03;;;;;;;10.20;4.20;;;;;;;2.91;85.58;96495.88;5037188;28;20217;-67